Time;durP1;ratioP1;P1;durP2;ratioP2;P2;SDS_P1;SDS_P2;PMS_P1;PMS_P2;Temp;Humidity;BMP_temperature;BMP_pressure;BME280_temperature;BME280_humidity;BME280_pressure;Samples;Min_cycle;Max_cycle;Signal;HPM_P1;HPM_P2
2023/12/22 00:00:37;;;;;;;4.03;1.33;;;6.30;1.00;;;;;;6281613;22;20159;-85
2023/12/22 00:03:02;;;;;;;3.30;1.20;;;6.30;1.00;;;;;;6256494;22;20187;-84
2023/12/22 00:05:28;;;;;;;6.97;1.50;;;6.30;1.00;;;;;;6284051;22;20200;-84
2023/12/22 00:07:53;;;;;;;8.10;1.30;;;6.30;1.00;;;;;;6281268;22;20179;-84
2023/12/22 00:10:19;;;;;;;6.03;1.10;;;6.40;1.00;;;;;;6255364;22;20165;-84
2023/12/22 00:12:44;;;;;;;4.77;1.40;;;6.40;1.00;;;;;;6282313;22;20148;-86
2023/12/22 00:15:10;;;;;;;9.00;1.70;;;6.40;1.00;;;;;;6284084;22;20149;-85
2023/12/22 00:17:35;;;;;;;6.57;1.57;;;6.40;1.00;;;;;;6282871;22;20148;-87
2023/12/22 00:20:02;;;;;;;7.90;2.03;;;6.30;1.00;;;;;;6258726;22;20282;-85
2023/12/22 00:22:29;;;;;;;7.97;1.83;;;6.30;1.00;;;;;;6284868;22;20153;-85
2023/12/22 00:24:54;;;;;;;7.20;1.70;;;6.30;1.00;;;;;;6257978;22;20181;-85
2023/12/22 00:27:20;;;;;;;5.60;1.77;;;6.30;1.00;;;;;;6257543;22;20166;-86
2023/12/22 00:29:45;;;;;;;4.40;1.33;;;6.30;1.00;;;;;;6284290;22;20259;-85
2023/12/22 00:32:11;;;;;;;10.53;2.10;;;6.30;1.00;;;;;;6282660;22;20251;-85
2023/12/22 00:34:36;;;;;;;10.30;1.60;;;6.40;1.00;;;;;;6286514;22;20172;-86
2023/12/22 00:37:04;;;;;;;6.43;1.70;;;6.40;1.00;;;;;;6288327;22;20152;-85
2023/12/22 00:39:30;;;;;;;7.13;1.80;;;6.40;1.00;;;;;;6258983;22;20153;-85
2023/12/22 00:41:56;;;;;;;12.15;1.90;;;6.30;1.00;;;;;;6253800;22;20497;-84
2023/12/22 00:44:21;;;;;;;11.80;2.17;;;6.40;1.00;;;;;;6253897;22;20187;-84
2023/12/22 00:46:47;;;;;;;9.33;1.83;;;6.40;1.00;;;;;;6279028;22;20250;-86
2023/12/22 00:49:12;;;;;;;7.67;2.77;;;6.40;1.00;;;;;;6279749;22;20248;-84
2023/12/22 00:51:38;;;;;;;4.30;2.00;;;6.30;1.00;;;;;;6252188;22;20259;-84
2023/12/22 00:54:03;;;;;;;11.20;2.53;;;6.30;1.00;;;;;;6280813;22;20195;-86
2023/12/22 00:56:29;;;;;;;14.90;2.60;;;6.30;1.00;;;;;;6280685;22;20193;-84
2023/12/22 00:58:54;;;;;;;8.97;1.97;;;6.30;1.00;;;;;;6280387;22;20160;-85
2023/12/22 01:01:21;;;;;;;7.37;2.10;;;6.30;1.00;;;;;;6281093;22;21033;-85
2023/12/22 01:03:46;;;;;;;17.33;1.92;;;6.40;1.00;;;;;;6277648;22;20168;-86
2023/12/22 01:06:12;;;;;;;6.40;2.07;;;6.40;1.00;;;;;;6280849;22;20153;-86
2023/12/22 01:08:38;;;;;;;11.27;2.10;;;6.40;1.00;;;;;;6252895;22;20156;-87
2023/12/22 01:11:03;;;;;;;5.82;1.60;;;6.50;1.00;;;;;;6279109;22;20255;-85
2023/12/22 01:13:29;;;;;;;11.43;2.90;;;6.50;1.00;;;;;;6278146;22;20179;-85
2023/12/22 01:15:54;;;;;;;11.83;2.00;;;6.50;1.00;;;;;;6280671;22;20608;-86
2023/12/22 01:18:20;;;;;;;4.63;1.30;;;6.50;1.00;;;;;;6279748;22;20149;-86
2023/12/22 01:20:45;;;;;;;8.10;2.43;;;6.50;1.00;;;;;;6278954;22;20191;-85
2023/12/22 01:23:11;;;;;;;11.80;2.50;;;6.60;1.00;;;;;;6279504;22;20183;-86
2023/12/22 01:25:36;;;;;;;7.50;2.17;;;6.60;1.00;;;;;;6278616;22;20160;-86
2023/12/22 01:28:02;;;;;;;9.33;2.37;;;6.60;1.00;;;;;;6278481;22;20183;-85
2023/12/22 01:30:27;;;;;;;5.80;1.40;;;6.60;1.00;;;;;;6277259;22;20246;-86
2023/12/22 01:32:53;;;;;;;8.60;2.17;;;6.70;1.00;;;;;;6279137;22;20145;-85
2023/12/22 01:35:18;;;;;;;8.90;2.33;;;6.60;1.00;;;;;;6280736;22;20153;-86
2023/12/22 01:37:44;;;;;;;11.33;2.20;;;6.70;1.00;;;;;;6279629;22;20592;-86
2023/12/22 01:40:10;;;;;;;7.70;1.90;;;6.70;1.00;;;;;;6279321;22;20145;-86
2023/12/22 01:42:35;;;;;;;14.17;2.60;;;6.70;1.00;;;;;;6281489;22;20149;-85
2023/12/22 01:45:01;;;;;;;9.77;2.07;;;6.70;1.00;;;;;;6254407;22;20187;-86
2023/12/22 01:47:27;;;;;;;10.03;2.67;;;6.60;1.00;;;;;;6254180;22;20152;-87
2023/12/22 01:49:53;;;;;;;15.55;2.53;;;6.60;1.00;;;;;;6281194;22;20149;-87
2023/12/22 01:52:18;;;;;;;9.90;2.63;;;6.60;1.00;;;;;;6281166;22;20184;-86
2023/12/22 01:54:44;;;;;;;12.80;2.60;;;6.60;1.00;;;;;;6255025;22;20173;-86
2023/12/22 01:57:13;;;;;;;13.30;3.20;;;6.60;1.00;;;;;;6254009;22;20240;-86
2023/12/22 01:59:39;;;;;;;11.85;3.47;;;6.60;1.00;;;;;;6281254;22;20194;-85
2023/12/22 02:02:04;;;;;;;18.53;3.03;;;6.60;1.00;;;;;;6279879;22;20156;-86
2023/12/22 02:04:31;;;;;;;7.70;2.80;;;6.70;1.00;;;;;;6281290;22;20233;-85
2023/12/22 02:07:02;;;;;;;12.02;2.92;;;6.70;1.00;;;;;;6281564;22;20148;-85
2023/12/22 02:09:27;;;;;;;15.57;4.30;;;6.70;1.00;;;;;;6281540;22;20627;-89
2023/12/22 02:11:53;;;;;;;17.13;3.43;;;6.80;1.00;;;;;;6255231;22;20176;-85
2023/12/22 02:14:19;;;;;;;10.23;3.73;;;6.90;1.00;;;;;;6281985;22;20983;-85
2023/12/22 02:17:05;;;;;;;14.73;2.60;;;6.90;1.00;;;;;;6283956;22;20160;-86
2023/12/22 02:19:42;;;;;;;7.10;2.42;;;7.00;1.00;;;;;;6283081;22;20368;-87
2023/12/22 02:22:10;;;;;;;11.02;2.53;;;7.00;1.00;;;;;;6257288;22;20231;-86
2023/12/22 02:24:36;;;;;;;10.57;2.60;;;7.00;1.00;;;;;;6258741;22;20216;-85
2023/12/22 02:27:09;;;;;;;7.63;2.07;;;7.00;1.00;;;;;;6283129;22;20163;-85
2023/12/22 02:29:40;;;;;;;7.93;2.40;;;7.10;1.00;;;;;;6255700;22;20156;-85
2023/12/22 02:32:11;;;;;;;10.38;2.55;;;7.10;1.00;;;;;;6281621;22;20299;-85
2023/12/22 02:34:40;;;;;;;10.35;3.08;;;7.10;1.00;;;;;;6254763;22;20204;-87
2023/12/22 02:37:08;;;;;;;9.77;2.50;;;7.10;1.00;;;;;;6282549;22;20180;-87
2023/12/22 02:39:35;;;;;;;15.13;3.00;;;7.20;1.00;;;;;;6256522;22;20155;-85
2023/12/22 02:42:04;;;;;;;11.10;3.30;;;7.30;1.00;;;;;;6282882;22;20203;-87
2023/12/22 02:44:30;;;;;;;9.65;2.60;;;7.30;1.00;;;;;;6284090;22;20245;-87
2023/12/22 02:46:56;;;;;;;14.68;3.40;;;7.40;1.00;;;;;;6282936;22;20157;-84
2023/12/22 02:49:21;;;;;;;18.13;3.97;;;7.40;1.00;;;;;;6282325;22;20230;-86
2023/12/22 02:51:46;;;;;;;7.90;2.50;;;7.40;1.00;;;;;;6256025;22;20582;-85
2023/12/22 02:54:12;;;;;;;16.50;3.77;;;7.50;1.00;;;;;;6281610;22;20241;-86
2023/12/22 02:56:37;;;;;;;10.87;2.80;;;7.50;1.00;;;;;;6283068;22;20145;-86
2023/12/22 02:59:03;;;;;;;8.50;2.77;;;7.50;1.00;;;;;;6284077;22;20892;-85
2023/12/22 03:01:28;;;;;;;14.97;2.70;;;7.60;1.00;;;;;;6284541;22;20171;-86
2023/12/22 03:03:54;;;;;;;11.83;3.77;;;7.60;1.00;;;;;;6282648;22;20188;-87
2023/12/22 03:06:19;;;;;;;12.20;3.30;;;7.60;1.00;;;;;;6283912;22;20484;-86
2023/12/22 03:08:45;;;;;;;9.07;2.53;;;7.60;1.00;;;;;;6256450;22;20157;-85
2023/12/22 03:11:10;;;;;;;13.80;3.00;;;7.70;1.00;;;;;;6284345;22;20172;-86
2023/12/22 03:13:36;;;;;;;10.73;2.77;;;7.70;1.00;;;;;;6255937;22;20168;-85
2023/12/22 03:16:01;;;;;;;11.43;2.50;;;7.70;1.00;;;;;;6284288;22;20161;-85
2023/12/22 03:18:27;;;;;;;9.90;2.90;;;7.80;1.00;;;;;;6257883;22;20153;-87
2023/12/22 03:20:52;;;;;;;9.83;2.90;;;7.80;99.90;;;;;;6286031;22;20692;-86
2023/12/22 03:23:18;;;;;;;16.20;3.23;;;7.80;99.90;;;;;;6285396;22;20172;-86
2023/12/22 03:25:43;;;;;;;17.20;3.60;;;7.90;99.90;;;;;;6256363;22;20615;-86
2023/12/22 03:28:09;;;;;;;10.97;2.57;;;7.90;99.90;;;;;;6284599;22;20210;-87
2023/12/22 03:30:35;;;;;;;9.77;2.50;;;7.90;1.00;;;;;;6284774;22;20172;-86
2023/12/22 03:33:01;;;;;;;12.63;2.50;;;7.80;1.00;;;;;;6258396;22;20196;-86
2023/12/22 03:35:27;;;;;;;14.77;3.00;;;7.60;33.00;;;;;;6283192;22;20443;-84
2023/12/22 03:37:52;;;;;;;14.93;2.70;;;7.60;1.00;;;;;;6285009;22;20176;-85
2023/12/22 03:40:17;;;;;;;9.27;2.23;;;7.50;1.00;;;;;;6284532;22;20375;-85
2023/12/22 03:42:43;;;;;;;10.83;3.03;;;7.40;1.00;;;;;;6280034;22;20148;-83
2023/12/22 03:45:09;;;;;;;11.83;2.33;;;7.30;1.00;;;;;;6282496;22;20624;-83
2023/12/22 03:47:34;;;;;;;7.53;3.13;;;7.30;1.00;;;;;;6280695;22;20157;-84
2023/12/22 03:49:59;;;;;;;9.50;1.60;;;7.20;99.90;;;;;;6281448;22;20148;-83
2023/12/22 03:52:25;;;;;;;14.07;3.03;;;7.20;99.90;;;;;;6280623;22;20179;-82
2023/12/22 03:54:50;;;;;;;6.70;2.83;;;7.20;99.90;;;;;;6279905;22;20177;-84
2023/12/22 03:57:16;;;;;;;10.43;2.80;;;7.10;99.90;;;;;;6280892;22;20156;-84
2023/12/22 03:59:43;;;;;;;9.50;2.10;;;7.10;99.90;;;;;;6280483;22;20153;-84
2023/12/22 04:02:08;;;;;;;9.75;2.80;;;7.10;99.90;;;;;;6280350;22;20165;-85
2023/12/22 04:04:38;;;;;;;7.67;2.40;;;7.10;99.90;;;;;;6281466;22;20663;-84
2023/12/22 04:07:03;;;;;;;12.23;2.50;;;7.10;99.90;;;;;;6279480;22;20152;-84
2023/12/22 04:09:29;;;;;;;12.10;3.00;;;7.10;99.90;;;;;;6281624;22;20156;-85
2023/12/22 04:11:54;;;;;;;8.03;2.40;;;7.10;99.90;;;;;;6281163;22;20237;-84
2023/12/22 04:14:20;;;;;;;15.90;2.63;;;7.10;1.00;;;;;;6281044;22;20203;-83
2023/12/22 04:16:45;;;;;;;5.37;2.40;;;7.10;1.00;;;;;;6280153;22;20157;-85
2023/12/22 04:19:11;;;;;;;14.50;3.33;;;7.10;1.00;;;;;;6280876;22;20152;-83
2023/12/22 04:21:36;;;;;;;10.97;3.40;;;7.10;1.00;;;;;;6280786;22;20530;-82
2023/12/22 04:24:02;;;;;;;7.37;2.20;;;7.20;1.00;;;;;;6278768;22;20172;-85
2023/12/22 04:26:28;;;;;;;15.67;2.77;;;7.20;1.00;;;;;;6280573;22;20153;-85
2023/12/22 04:28:53;;;;;;;14.33;2.33;;;7.40;1.00;;;;;;6286267;22;20748;-84
2023/12/22 04:31:19;;;;;;;15.67;3.00;;;7.40;1.00;;;;;;6285461;22;20180;-85
2023/12/22 04:33:45;;;;;;;12.53;2.50;;;7.50;99.90;;;;;;6285415;22;20177;-84
2023/12/22 04:36:10;;;;;;;17.13;4.57;;;7.60;99.90;;;;;;6285306;22;20149;-82
2023/12/22 04:38:36;;;;;;;20.13;3.87;;;7.60;99.90;;;;;;6284234;22;20682;-84
2023/12/22 04:41:04;;;;;;;8.30;2.90;;;7.70;99.90;;;;;;6285784;22;20161;-84
2023/12/22 04:43:29;;;;;;;14.17;2.97;;;7.80;99.90;;;;;;6282901;22;20149;-84
2023/12/22 04:45:55;;;;;;;16.57;3.50;;;7.80;1.00;;;;;;6284687;22;20470;-84
2023/12/22 04:48:20;;;;;;;13.53;3.90;;;7.80;99.90;;;;;;6258412;22;20157;-84
2023/12/22 04:50:46;;;;;;;15.87;3.87;;;7.90;99.90;;;;;;6284984;22;20173;-84
2023/12/22 04:53:11;;;;;;;13.50;2.70;;;7.90;99.90;;;;;;6283312;22;20237;-85
2023/12/22 04:55:37;;;;;;;19.37;3.60;;;8.00;99.90;;;;;;6283721;22;20672;-84
2023/12/22 04:58:03;;;;;;;11.80;2.90;;;8.00;99.90;;;;;;6284695;22;20209;-86
2023/12/22 05:00:28;;;;;;;12.03;3.20;;;8.10;99.90;;;;;;6285089;22;20199;-84
2023/12/22 05:02:54;;;;;;;14.83;3.17;;;8.10;99.90;;;;;;6258688;22;20379;-85
2023/12/22 05:05:19;;;;;;;10.90;3.07;;;8.20;99.90;;;;;;6285282;22;20672;-84
2023/12/22 05:07:45;;;;;;;11.30;2.77;;;8.20;99.90;;;;;;6285165;22;20156;-84
2023/12/22 05:10:10;;;;;;;14.07;3.20;;;8.30;99.90;;;;;;6257784;22;20175;-84
2023/12/22 05:12:36;;;;;;;13.87;3.20;;;8.40;99.90;;;;;;6282052;22;20184;-83
2023/12/22 05:15:02;;;;;;;14.50;3.97;;;8.40;1.00;;;;;;6279636;22;20176;-83
2023/12/22 05:17:27;;;;;;;17.70;2.97;;;8.40;1.00;;;;;;6281188;22;20152;-84
2023/12/22 05:19:53;;;;;;;18.47;4.37;;;8.40;1.00;;;;;;6282820;22;20439;-85
2023/12/22 05:22:18;;;;;;;19.50;3.17;;;8.50;99.90;;;;;;6283136;22;20184;-83
2023/12/22 05:24:44;;;;;;;12.77;3.07;;;8.50;99.90;;;;;;6282419;22;20517;-84
2023/12/22 05:27:09;;;;;;;14.67;3.40;;;8.50;1.00;;;;;;6282009;22;20153;-85
2023/12/22 05:29:35;;;;;;;13.97;2.50;;;8.50;1.00;;;;;;6283970;22;20180;-82
2023/12/22 05:32:00;;;;;;;16.40;3.50;;;8.60;1.00;;;;;;6285188;22;20176;-82
2023/12/22 05:34:26;;;;;;;13.40;2.87;;;8.60;1.00;;;;;;6284481;22;20188;-83
2023/12/22 05:36:51;;;;;;;15.10;2.90;;;8.60;99.90;;;;;;6281959;22;20494;-84
2023/12/22 05:39:17;;;;;;;11.03;3.67;;;8.60;99.90;;;;;;6257204;22;20176;-83
2023/12/22 05:41:42;;;;;;;15.23;3.20;;;8.60;99.90;;;;;;6284325;22;20491;-84
2023/12/22 05:44:08;;;;;;;14.80;4.03;;;8.60;96.10;;;;;;6283226;22;20175;-85
2023/12/22 05:46:40;;;;;;;16.03;2.70;;;8.60;99.90;;;;;;6283445;22;20160;-84
2023/12/22 05:49:06;;;;;;;13.20;3.03;;;8.60;1.00;;;;;;6281589;22;20148;-84
2023/12/22 05:51:41;;;;;;;16.00;3.00;;;8.60;1.00;;;;;;6283781;22;20449;-82
2023/12/22 05:54:08;;;;;;;11.23;3.00;;;8.60;99.90;;;;;;6282396;22;20169;-84
2023/12/22 05:56:34;;;;;;;11.33;2.90;;;8.60;99.90;;;;;;6284383;22;20375;-84
2023/12/22 05:58:59;;;;;;;13.83;4.00;;;8.60;99.90;;;;;;6289371;22;20376;-84
2023/12/22 06:01:25;;;;;;;17.10;3.90;;;8.60;1.00;;;;;;6260269;22;20183;-86
2023/12/22 06:03:50;;;;;;;20.10;4.30;;;8.60;1.00;;;;;;6286759;22;20548;-85
2023/12/22 06:06:16;;;;;;;9.07;3.03;;;8.60;99.90;;;;;;6258549;22;20156;-84
2023/12/22 06:08:41;;;;;;;18.73;4.00;;;8.70;99.90;;;;;;6287999;22;20160;-85
2023/12/22 06:11:07;;;;;;;28.27;4.43;;;8.70;1.00;;;;;;6285790;22;20176;-83
2023/12/22 06:13:32;;;;;;;16.13;4.10;;;8.70;99.90;;;;;;6287167;22;20145;-84
2023/12/22 06:15:58;;;;;;;13.43;3.60;;;8.70;99.90;;;;;;6286394;22;20253;-84
2023/12/22 06:18:23;;;;;;;12.50;3.67;;;8.70;1.00;;;;;;6287600;22;20151;-84
2023/12/22 06:20:50;;;;;;;10.83;3.40;;;8.70;55.90;;;;;;6285358;22;20149;-84
2023/12/22 06:23:15;;;;;;;15.70;3.83;;;8.70;99.90;;;;;;6257415;22;20160;-84
2023/12/22 06:25:41;;;;;;;17.67;4.20;;;8.60;99.90;;;;;;6285821;22;20403;-84
2023/12/22 06:28:06;;;;;;;17.90;3.50;;;8.60;99.90;;;;;;6286697;22;20149;-85
2023/12/22 06:30:32;;;;;;;10.40;3.50;;;8.60;99.90;;;;;;6284164;22;20159;-84
2023/12/22 06:32:58;;;;;;;14.03;3.10;;;8.60;99.90;;;;;;6258124;22;20661;-83
2023/12/22 06:35:25;;;;;;;11.50;3.90;;;8.60;99.90;;;;;;6286040;22;20230;-84
2023/12/22 06:37:51;;;;;;;13.60;3.80;;;8.60;99.90;;;;;;6284500;22;20164;-84
2023/12/22 06:40:17;;;;;;;8.57;2.80;;;8.60;99.90;;;;;;6285304;22;20375;-85
2023/12/22 06:42:42;;;;;;;13.50;4.10;;;8.50;99.90;;;;;;6284224;22;20411;-85
2023/12/22 06:45:10;;;;;;;12.90;3.27;;;8.50;99.90;;;;;;6256336;22;20707;-83
2023/12/22 06:47:36;;;;;;;15.97;3.53;;;8.50;99.90;;;;;;6281624;22;20171;-84
2023/12/22 06:50:01;;;;;;;16.50;3.93;;;8.60;99.90;;;;;;6280418;22;20403;-84
2023/12/22 06:52:27;;;;;;;20.50;4.40;;;8.50;99.90;;;;;;6283254;22;20177;-84
2023/12/22 06:54:52;;;;;;;12.80;4.90;;;8.50;1.00;;;;;;6283016;22;20191;-84
2023/12/22 06:57:18;;;;;;;23.27;4.80;;;8.60;1.00;;;;;;6281255;22;20171;-86
2023/12/22 06:59:43;;;;;;;15.63;4.50;;;8.60;1.00;;;;;;6283652;22;20149;-83
2023/12/22 07:02:09;;;;;;;18.23;4.07;;;8.60;1.00;;;;;;6253312;22;20280;-85
2023/12/22 07:05:06;;;;;;;23.20;5.00;;;8.60;1.00;;;;;;6283092;22;20395;-85
2023/12/22 07:07:31;;;;;;;13.93;3.60;;;8.70;1.00;;;;;;6256933;22;20609;-84
2023/12/22 07:09:57;;;;;;;19.50;4.73;;;8.70;1.00;;;;;;6284006;22;20379;-84
2023/12/22 07:12:22;;;;;;;22.03;4.67;;;8.70;1.00;;;;;;6283821;22;20172;-85
2023/12/22 07:14:48;;;;;;;15.50;5.70;;;8.70;99.90;;;;;;6280435;22;20173;-82
2023/12/22 07:17:13;;;;;;;15.70;4.50;;;8.80;99.90;;;;;;6281436;22;20149;-84
2023/12/22 07:19:39;;;;;;;14.77;4.60;;;8.80;99.90;;;;;;6281603;22;20493;-87
2023/12/22 07:22:04;;;;;;;22.97;5.00;;;8.80;99.90;;;;;;6280918;22;20513;-83
2023/12/22 07:24:30;;;;;;;24.30;5.70;;;8.80;1.00;;;;;;6282260;22;20173;-83
2023/12/22 07:26:55;;;;;;;21.67;5.50;;;8.80;1.00;;;;;;6281126;22;20498;-85
2023/12/22 07:29:21;;;;;;;25.30;5.17;;;8.80;1.00;;;;;;6281351;22;20160;-83
2023/12/22 07:31:46;;;;;;;20.23;6.13;;;8.80;1.00;;;;;;6285654;22;20181;-84
2023/12/22 07:34:12;;;;;;;26.10;5.17;;;8.90;1.00;;;;;;6284477;22;20180;-84
2023/12/22 07:36:37;;;;;;;26.63;6.00;;;8.90;1.00;;;;;;6285084;22;20199;-82
2023/12/22 07:39:03;;;;;;;28.17;6.20;;;8.90;1.00;;;;;;6282707;22;20149;-84
2023/12/22 07:41:28;;;;;;;25.70;6.10;;;8.90;1.00;;;;;;6284677;22;20145;-85
2023/12/22 07:43:54;;;;;;;24.30;6.50;;;8.90;1.00;;;;;;6283889;22;20158;-85
2023/12/22 07:46:21;;;;;;;29.37;6.40;;;8.90;1.00;;;;;;6256733;22;20161;-82
2023/12/22 07:48:47;;;;;;;32.80;6.10;;;8.90;1.00;;;;;;6280056;22;20160;-84
2023/12/22 07:51:13;;;;;;;25.23;5.77;;;8.90;1.00;;;;;;6282719;22;20760;-84
2023/12/22 07:53:38;;;;;;;17.70;4.13;;;8.90;1.00;;;;;;6282036;22;20145;-83
2023/12/22 07:56:05;;;;;;;25.93;5.83;;;8.90;1.00;;;;;;6280282;22;20172;-82
2023/12/22 07:58:31;;;;;;;22.43;6.00;;;8.90;1.00;;;;;;6280424;22;20172;-84
2023/12/22 08:00:58;;;;;;;26.53;5.33;;;8.90;1.00;;;;;;6282518;22;20442;-83
2023/12/22 08:03:24;;;;;;;25.20;5.10;;;8.90;1.00;;;;;;6281631;22;20380;-84
2023/12/22 08:05:49;;;;;;;27.97;5.43;;;9.00;1.00;;;;;;6280529;22;20753;-84
2023/12/22 08:08:15;;;;;;;24.13;5.73;;;9.00;1.00;;;;;;6283288;22;20153;-83
2023/12/22 08:10:41;;;;;;;23.30;6.30;;;9.00;1.00;;;;;;6283819;22;20168;-82
2023/12/22 08:13:06;;;;;;;33.40;7.63;;;9.00;1.00;;;;;;6283576;22;20203;-84
2023/12/22 08:15:32;;;;;;;31.57;7.17;;;9.00;1.00;;;;;;6280598;22;20164;-83
2023/12/22 08:17:58;;;;;;;31.27;5.90;;;9.00;1.00;;;;;;6252633;22;20179;-82
2023/12/22 08:20:23;;;;;;;17.30;5.13;;;9.10;1.00;;;;;;6279557;22;20160;-83
2023/12/22 08:22:49;;;;;;;31.67;5.60;;;9.10;1.00;;;;;;6277183;22;20542;-82
2023/12/22 08:25:15;;;;;;;29.30;5.83;;;9.10;1.00;;;;;;6278004;22;20165;-84
2023/12/22 08:27:41;;;;;;;32.10;6.30;;;9.10;1.00;;;;;;6277350;22;20372;-83
2023/12/22 08:30:08;;;;;;;26.30;5.40;;;9.10;1.00;;;;;;6275392;22;20855;-82
2023/12/22 08:32:34;;;;;;;24.90;7.00;;;9.20;1.00;;;;;;6277038;22;20471;-83
2023/12/22 08:34:59;;;;;;;28.43;5.90;;;9.20;1.00;;;;;;6275653;22;20415;-82
2023/12/22 08:37:25;;;;;;;26.57;5.63;;;9.20;1.00;;;;;;6276806;22;20157;-82
2023/12/22 08:39:50;;;;;;;20.87;5.83;;;9.20;1.00;;;;;;6275490;22;20601;-83
2023/12/22 08:42:17;;;;;;;30.93;5.80;;;9.20;1.00;;;;;;6274453;22;20148;-82
2023/12/22 08:44:42;;;;;;;22.80;6.43;;;9.20;1.00;;;;;;6250065;22;20184;-82
2023/12/22 08:47:08;;;;;;;23.10;5.60;;;9.20;1.00;;;;;;6248272;22;20384;-82
2023/12/22 08:49:33;;;;;;;22.00;5.90;;;9.20;1.00;;;;;;6275471;22;20152;-82
2023/12/22 08:51:59;;;;;;;21.73;5.67;;;9.20;1.00;;;;;;6275194;22;20372;-80
2023/12/22 08:54:24;;;;;;;28.00;7.00;;;9.20;1.00;;;;;;6278657;22;20169;-81
2023/12/22 08:56:50;;;;;;;26.67;6.97;;;9.20;1.00;;;;;;6276257;22;20644;-83
2023/12/22 08:59:15;;;;;;;27.27;6.20;;;9.20;1.00;;;;;;6264288;22;20160;-82
2023/12/22 09:01:42;;;;;;;21.23;5.37;;;9.30;1.00;;;;;;6281171;22;20890;-81
2023/12/22 09:04:09;;;;;;;23.97;7.10;;;9.30;1.00;;;;;;6282283;22;20192;-82
2023/12/22 09:06:34;;;;;;;24.90;4.87;;;9.40;1.00;;;;;;6281866;22;20402;-84
2023/12/22 09:09:00;;;;;;;27.13;7.43;;;9.50;1.00;;;;;;6254864;22;20387;-82
2023/12/22 09:11:25;;;;;;;22.90;4.27;;;9.60;1.00;;;;;;6255981;22;20265;-82
2023/12/22 09:13:51;;;;;;;20.93;5.30;;;9.60;1.00;;;;;;6282395;22;20198;-83
2023/12/22 09:16:21;;;;;;;23.13;5.53;;;9.70;1.00;;;;;;6253575;22;20152;-82
2023/12/22 09:18:47;;;;;;;14.53;5.23;;;9.70;1.00;;;;;;6280600;22;20224;-83
2023/12/22 09:21:12;;;;;;;16.47;4.97;;;9.80;1.00;;;;;;6281566;22;20383;-82
2023/12/22 09:23:38;;;;;;;15.57;4.77;;;9.80;1.00;;;;;;6282621;22;20153;-82
2023/12/22 09:26:04;;;;;;;20.87;5.00;;;9.80;1.00;;;;;;6282649;22;20172;-84
2023/12/22 09:28:30;;;;;;;17.20;4.83;;;9.80;1.00;;;;;;6280206;22;20207;-83
2023/12/22 09:30:55;;;;;;;20.17;4.30;;;9.90;1.00;;;;;;6255686;22;20823;-82
2023/12/22 09:33:22;;;;;;;18.47;4.70;;;9.90;1.00;;;;;;6281548;22;20251;-81
2023/12/22 09:35:48;;;;;;;12.80;3.70;;;10.00;1.00;;;;;;6281610;22;20533;-85
2023/12/22 09:38:13;;;;;;;13.87;5.30;;;10.00;1.00;;;;;;6247846;23;20376;-87
2023/12/22 09:40:39;;;;;;;20.57;5.90;;;10.00;1.00;;;;;;6248203;23;20157;-85
2023/12/22 09:43:06;;;;;;;13.40;4.20;;;10.00;1.00;;;;;;6245036;23;20244;-85
2023/12/22 09:45:33;;;;;;;10.30;3.37;;;10.00;1.00;;;;;;6247027;23;20186;-87
2023/12/22 09:48:00;;;;;;;13.47;3.70;;;10.00;1.00;;;;;;6248238;23;20389;-85
2023/12/22 09:50:30;;;;;;;14.60;3.67;;;9.90;1.00;;;;;;6247363;23;20860;-84
2023/12/22 09:52:57;;;;;;;7.73;3.20;;;9.80;1.00;;;;;;6250395;22;20441;-85
2023/12/22 09:55:22;;;;;;;9.70;3.30;;;9.80;1.00;;;;;;6248583;22;20393;-84
2023/12/22 09:57:49;;;;;;;7.03;3.17;;;9.70;1.00;;;;;;6245874;23;20382;-85
2023/12/22 10:00:16;;;;;;;12.73;3.87;;;9.70;1.00;;;;;;6247379;22;20377;-85
2023/12/22 10:02:42;;;;;;;7.23;3.77;;;9.70;1.00;;;;;;6248673;23;20395;-85
2023/12/22 10:05:13;;;;;;;10.33;4.30;;;9.60;1.00;;;;;;6250915;22;20747;-85
2023/12/22 10:07:47;;;;;;;10.03;4.60;;;9.60;1.00;;;;;;6249698;23;20856;-85
2023/12/22 10:10:18;;;;;;;11.83;3.90;;;9.60;1.00;;;;;;6251758;22;20363;-85
2023/12/22 10:12:45;;;;;;;9.80;3.87;;;9.70;1.00;;;;;;6250038;23;20439;-86
2023/12/22 10:15:12;;;;;;;8.47;4.37;;;9.60;1.00;;;;;;6251203;22;20389;-83
2023/12/22 10:17:38;;;;;;;7.33;3.97;;;9.70;1.00;;;;;;6252155;22;20368;-86
2023/12/22 10:20:04;;;;;;;9.17;4.30;;;9.60;1.00;;;;;;6251392;23;20381;-85
2023/12/22 10:22:30;;;;;;;9.77;4.13;;;9.70;1.00;;;;;;6250946;22;20714;-85
2023/12/22 10:24:55;;;;;;;5.63;3.40;;;9.60;1.00;;;;;;6250569;23;20405;-86
2023/12/22 10:27:24;;;;;;;9.13;3.80;;;9.60;1.00;;;;;;6251918;23;20149;-85
2023/12/22 10:29:53;;;;;;;9.10;5.00;;;9.70;1.00;;;;;;6251937;23;20279;-85
2023/12/22 10:32:19;;;;;;;6.60;3.43;;;9.80;1.00;;;;;;6250149;23;20427;-84
2023/12/22 10:34:45;;;;;;;5.40;4.00;;;9.80;1.00;;;;;;6255022;22;20419;-85
2023/12/22 10:37:12;;;;;;;8.57;5.57;;;9.80;1.00;;;;;;6255247;22;20372;-85
2023/12/22 10:39:38;;;;;;;6.07;4.87;;;9.80;1.00;;;;;;6282901;22;20149;-85
2023/12/22 10:42:07;;;;;;;7.20;4.17;;;9.90;1.00;;;;;;6254408;22;20940;-85
2023/12/22 10:44:33;;;;;;;8.13;4.93;;;10.00;1.00;;;;;;6282204;22;20390;-85
2023/12/22 10:47:00;;;;;;;6.10;3.83;;;10.00;1.00;;;;;;6255151;22;20387;-85
2023/12/22 10:49:26;;;;;;;7.23;3.60;;;10.10;1.00;;;;;;6282238;22;20383;-85
2023/12/22 10:51:52;;;;;;;5.40;4.10;;;10.20;1.00;;;;;;6255650;22;20423;-86
2023/12/22 10:54:20;;;;;;;5.63;4.67;;;10.30;1.00;;;;;;6283922;22;20148;-86
2023/12/22 10:56:45;;;;;;;9.97;4.30;;;10.40;1.00;;;;;;6283921;22;20368;-85
2023/12/22 10:59:11;;;;;;;8.33;4.97;;;10.60;1.00;;;;;;6282509;22;20426;-85
2023/12/22 11:01:38;;;;;;;6.63;4.83;;;10.70;1.00;;;;;;6283236;22;20155;-85
2023/12/22 11:04:07;;;;;;;8.60;5.10;;;10.70;1.00;;;;;;6285222;22;20383;-85
2023/12/22 11:06:37;;;;;;;7.50;4.17;;;10.70;1.00;;;;;;6281506;22;20396;-86
2023/12/22 11:09:10;;;;;;;7.33;3.80;;;10.60;1.00;;;;;;6280127;22;20843;-85
2023/12/22 11:11:37;;;;;;;3.30;3.00;;;10.60;1.00;;;;;;6251921;22;20981;-85
2023/12/22 11:14:04;;;;;;;7.47;3.63;;;10.50;1.00;;;;;;6278608;22;20386;-84
2023/12/22 11:16:33;;;;;;;5.80;3.73;;;10.50;1.00;;;;;;6253012;22;20411;-85
2023/12/22 11:18:59;;;;;;;4.27;3.30;;;10.50;1.00;;;;;;6282342;22;20453;-83
2023/12/22 11:21:26;;;;;;;4.13;3.73;;;10.40;1.00;;;;;;6279216;22;20368;-85
2023/12/22 11:23:52;;;;;;;6.27;3.97;;;10.40;1.00;;;;;;6278682;22;20368;-86
2023/12/22 11:26:20;;;;;;;5.13;3.17;;;10.40;1.00;;;;;;6277847;22;20400;-85
2023/12/22 11:28:46;;;;;;;8.47;3.00;;;10.50;1.00;;;;;;6250462;22;20391;-84
2023/12/22 11:31:13;;;;;;;4.80;2.93;;;10.50;1.00;;;;;;6280539;22;20471;-85
2023/12/22 11:33:47;;;;;;;5.80;3.03;;;10.60;1.00;;;;;;6251781;22;20379;-84
2023/12/22 11:36:14;;;;;;;6.47;3.00;;;10.60;1.00;;;;;;6247678;22;20934;-83
2023/12/22 11:38:41;;;;;;;4.57;2.30;;;10.70;1.00;;;;;;6278180;22;20208;-82
2023/12/22 11:41:24;;;;;;;3.73;2.87;;;10.80;1.00;;;;;;6250921;22;20383;-83
2023/12/22 11:43:51;;;;;;;7.23;2.07;;;10.90;1.00;;;;;;6253532;22;20947;-84
2023/12/22 11:46:18;;;;;;;5.17;2.17;;;11.00;1.00;;;;;;6279734;22;20438;-83
2023/12/22 11:48:51;;;;;;;3.50;2.33;;;11.00;1.00;;;;;;6252553;22;20388;-83
2023/12/22 11:51:18;;;;;;;8.10;3.20;;;11.10;1.00;;;;;;6278521;22;20422;-83
2023/12/22 11:53:44;;;;;;;4.40;2.17;;;11.10;1.00;;;;;;6251592;22;20379;-83
2023/12/22 11:56:11;;;;;;;7.70;2.60;;;11.10;1.00;;;;;;6282151;22;20775;-83
2023/12/22 11:58:40;;;;;;;4.10;2.03;;;11.10;1.00;;;;;;6280877;22;20382;-83
2023/12/22 12:01:08;;;;;;;4.97;2.07;;;11.10;1.00;;;;;;6253631;22;20383;-83
2023/12/22 12:03:38;;;;;;;4.10;1.90;;;11.10;1.00;;;;;;6280145;22;20403;-83
2023/12/22 12:06:11;;;;;;;4.40;2.00;;;11.10;1.00;;;;;;6278996;22;20425;-83
2023/12/22 12:08:37;;;;;;;5.00;1.87;;;11.00;1.00;;;;;;6277607;22;20378;-83
2023/12/22 12:11:03;;;;;;;5.10;2.27;;;11.00;1.00;;;;;;6280023;22;20918;-83
2023/12/22 12:13:31;;;;;;;6.43;2.70;;;11.10;1.00;;;;;;6277968;22;20163;-82
2023/12/22 12:16:00;;;;;;;4.23;2.53;;;11.20;1.00;;;;;;6283075;22;20395;-84
2023/12/22 12:18:28;;;;;;;3.67;2.20;;;11.20;1.00;;;;;;6284024;22;20923;-84
2023/12/22 12:20:54;;;;;;;7.53;1.73;;;11.30;99.90;;;;;;6278422;22;21211;-84
2023/12/22 12:23:27;;;;;;;3.93;2.27;;;11.40;99.90;;;;;;6280473;22;20414;-82
2023/12/22 12:25:56;;;;;;;5.80;1.80;;;11.40;99.90;;;;;;6279364;22;20478;-82
2023/12/22 12:28:34;;;;;;;3.10;2.20;;;11.50;99.90;;;;;;6251516;22;20725;-83
2023/12/22 12:31:02;;;;;;;5.50;2.20;;;11.50;99.90;;;;;;6281197;22;20407;-82
2023/12/22 12:33:28;;;;;;;3.53;2.00;;;11.50;99.90;;;;;;6281169;22;20397;-83
2023/12/22 12:35:59;;;;;;;5.90;2.70;;;11.50;99.90;;;;;;6255153;22;20438;-83
2023/12/22 12:38:48;;;;;;;4.60;1.83;;;11.40;99.90;;;;;;6279057;22;20978;-84
2023/12/22 12:41:15;;;;;;;6.27;1.90;;;11.30;99.90;;;;;;6278832;22;20356;-86
2023/12/22 12:43:43;;;;;;;2.03;1.17;;;11.30;99.90;;;;;;6273708;22;20410;-86
2023/12/22 12:46:08;;;;;;;4.07;1.47;;;11.20;99.90;;;;;;6246885;22;20403;-86
2023/12/22 12:48:34;;;;;;;6.53;1.50;;;11.30;99.90;;;;;;6247160;22;20379;-86
2023/12/22 12:51:07;;;;;;;5.83;1.83;;;11.30;99.90;;;;;;6275063;22;20415;-86
2023/12/22 12:53:33;;;;;;;3.87;2.03;;;11.30;1.00;;;;;;6247447;22;20659;-84